createdAt,value
2018-11-10T00:00:15.186Z,94.22
2018-11-10T00:02:42.546Z,94.04
2018-11-10T00:05:10.036Z,94.07
2018-11-10T00:07:37.466Z,92.94
2018-11-10T00:10:05.044Z,93.00
2018-11-10T00:12:32.225Z,93.63
2018-11-10T00:14:59.440Z,93.83
2018-11-10T00:17:26.667Z,93.42
2018-11-10T00:19:53.921Z,93.61
2018-11-10T00:22:21.147Z,94.08
2018-11-10T00:24:48.414Z,93.84
2018-11-10T00:27:15.755Z,94.26
2018-11-10T00:29:43.045Z,95.64
2018-11-10T00:32:10.296Z,95.67
2018-11-10T00:34:37.612Z,95.92
2018-11-10T00:37:04.926Z,95.18
2018-11-10T00:39:32.249Z,94.98
2018-11-10T00:41:59.535Z,94.53
2018-11-10T00:44:26.861Z,94.37
2018-11-10T00:46:54.115Z,94.21
2018-11-10T00:49:21.791Z,94.43
2018-11-10T00:51:49.021Z,94.56
2018-11-10T00:54:16.307Z,94.54
2018-11-10T00:56:43.558Z,94.04
2018-11-10T00:59:10.796Z,93.98
2018-11-10T01:01:38.054Z,94.32
2018-11-10T01:04:05.619Z,94.20
2018-11-10T01:06:32.942Z,94.14
2018-11-10T01:09:00.200Z,94.54
2018-11-10T01:11:27.514Z,95.20
2018-11-10T01:13:54.786Z,95.85
2018-11-10T01:16:22.015Z,95.25
2018-11-10T01:18:49.339Z,96.47
2018-11-10T01:21:16.662Z,97.16
2018-11-10T01:23:44.140Z,96.95
2018-11-10T01:26:11.477Z,96.64
2018-11-10T01:28:38.821Z,96.03
2018-11-10T01:31:06.268Z,95.68
2018-11-10T01:33:33.626Z,94.96
2018-11-10T01:36:00.846Z,93.86
2018-11-10T01:38:28.088Z,94.17
2018-11-10T01:40:55.353Z,93.90
2018-11-10T01:43:22.603Z,94.68
2018-11-10T01:45:49.882Z,94.37
2018-11-10T01:48:17.145Z,95.03
2018-11-10T01:50:44.455Z,94.88
2018-11-10T01:53:11.712Z,94.69
2018-11-10T01:55:38.944Z,95.00
2018-11-10T01:58:06.189Z,95.10
2018-11-10T02:00:33.414Z,95.23
2018-11-10T02:03:00.752Z,95.00
2018-11-10T02:05:27.961Z,94.70
2018-11-10T02:07:55.257Z,95.06
2018-11-10T02:10:22.468Z,95.59
2018-11-10T02:12:49.735Z,95.72
2018-11-10T02:15:17.125Z,96.12
2018-11-10T02:17:44.352Z,96.81
2018-11-10T02:20:12.841Z,97.20
2018-11-10T02:22:40.373Z,97.85
2018-11-10T02:25:08.756Z,97.85
2018-11-10T02:27:36.025Z,98.62
2018-11-10T02:30:03.461Z,98.77
2018-11-10T02:32:30.726Z,98.58
2018-11-10T02:34:57.995Z,99.21
2018-11-10T02:37:25.278Z,98.82
2018-11-10T02:39:52.552Z,98.99
2018-11-10T02:45:12.067Z,98.51
2018-11-10T02:47:39.363Z,98.70
2018-11-10T02:50:06.647Z,98.85
2018-11-10T02:52:33.974Z,99.16
2018-11-10T02:55:01.236Z,99.54
2018-11-10T02:57:28.472Z,99.69
2018-11-10T02:59:55.776Z,99.61
2018-11-10T03:02:23.000Z,98.91
2018-11-10T03:04:50.234Z,98.95
2018-11-10T03:07:17.456Z,98.62
2018-11-10T03:09:44.757Z,97.80
2018-11-10T03:12:11.986Z,97.38
2018-11-10T03:14:39.276Z,97.27
2018-11-10T03:17:06.452Z,97.30
2018-11-10T03:19:33.770Z,97.98
2018-11-10T03:22:00.976Z,97.04
2018-11-10T03:24:28.254Z,97.71
2018-11-10T03:26:55.529Z,97.79
2018-11-10T03:29:22.788Z,98.24
2018-11-10T03:31:50.051Z,97.71
2018-11-10T03:34:17.277Z,98.20
2018-11-10T03:36:44.518Z,98.01
2018-11-10T03:39:12.618Z,97.79
2018-11-10T03:41:39.940Z,97.22
2018-11-10T03:44:07.377Z,97.10
2018-11-10T03:46:34.687Z,98.22
2018-11-10T03:49:01.981Z,98.72
2018-11-10T03:51:29.296Z,98.72
2018-11-10T03:53:56.538Z,97.92
2018-11-10T03:56:23.839Z,97.39
2018-11-10T03:58:51.079Z,97.12
2018-11-10T04:01:18.425Z,97.60
2018-11-10T04:03:45.687Z,96.92
2018-11-10T04:06:12.924Z,97.43
2018-11-10T04:08:40.094Z,97.42
2018-11-10T04:11:07.335Z,97.51
2018-11-10T04:13:34.576Z,97.13
2018-11-10T04:16:01.859Z,96.76
2018-11-10T04:18:29.117Z,96.99
2018-11-10T04:20:56.409Z,97.68
2018-11-10T04:23:23.618Z,97.55
2018-11-10T04:25:50.830Z,97.21
2018-11-10T04:28:18.077Z,96.89
2018-11-10T04:30:45.326Z,96.77
2018-11-10T04:33:12.580Z,95.66
2018-11-10T04:35:39.806Z,96.28
2018-11-10T04:38:07.005Z,95.51
2018-11-10T04:40:34.341Z,95.26
2018-11-10T04:43:01.599Z,96.45
2018-11-10T04:45:28.805Z,96.84
2018-11-10T04:47:56.065Z,96.54
2018-11-10T04:50:23.249Z,96.45
2018-11-10T04:52:50.500Z,97.10
2018-11-10T04:55:17.732Z,98.01
2018-11-10T04:57:44.965Z,97.15
2018-11-10T05:00:14.318Z,96.63
2018-11-10T05:02:42.105Z,95.99
2018-11-10T05:05:09.376Z,95.77
2018-11-10T05:07:36.844Z,95.38
2018-11-10T05:10:04.768Z,95.51
2018-11-10T05:12:32.015Z,95.95
2018-11-10T05:14:59.267Z,96.08
2018-11-10T05:17:26.538Z,96.06
2018-11-10T05:19:53.805Z,96.29
2018-11-10T05:22:21.248Z,97.23
2018-11-10T05:24:48.568Z,96.60
2018-11-10T05:27:15.892Z,96.24
2018-11-10T05:29:43.230Z,95.85
2018-11-10T05:32:10.592Z,95.26
2018-11-10T05:34:37.904Z,95.08
2018-11-10T05:37:05.284Z,95.46
2018-11-10T05:39:32.575Z,95.04
2018-11-10T05:41:59.810Z,94.69
2018-11-10T05:44:27.010Z,94.86
2018-11-10T05:46:54.246Z,95.06
2018-11-10T05:49:21.532Z,94.75
2018-11-10T05:51:48.803Z,94.51
2018-11-10T05:54:16.018Z,94.64
2018-11-10T05:56:43.273Z,93.87
2018-11-10T05:59:10.497Z,93.92
2018-11-10T06:01:37.804Z,94.08
2018-11-10T06:04:05.045Z,93.17
2018-11-10T06:06:32.305Z,91.73
2018-11-10T06:08:59.590Z,92.33
2018-11-10T06:11:26.884Z,92.08
2018-11-10T06:13:54.325Z,91.21
2018-11-10T06:16:21.521Z,91.20
2018-11-10T06:18:48.859Z,91.56
2018-11-10T06:21:16.106Z,92.14
2018-11-10T06:23:43.384Z,91.69
2018-11-10T06:26:10.738Z,91.61
2018-11-10T06:28:37.984Z,92.15
2018-11-10T06:31:05.634Z,91.68
2018-11-10T06:33:32.880Z,91.84
2018-11-10T06:36:00.158Z,91.93
2018-11-10T06:38:27.397Z,92.07
2018-11-10T06:40:54.656Z,92.29
2018-11-10T06:43:21.981Z,92.92
2018-11-10T06:45:49.188Z,92.89
2018-11-10T06:48:16.424Z,92.18
2018-11-10T06:50:43.692Z,92.24
2018-11-10T06:53:11.025Z,91.22
2018-11-10T06:55:38.307Z,91.63
2018-11-10T06:58:05.599Z,90.82
2018-11-10T07:00:32.821Z,90.75
2018-11-10T07:03:00.140Z,89.95
2018-11-10T07:05:27.446Z,90.55
2018-11-10T07:07:54.793Z,90.28
2018-11-10T07:10:22.047Z,90.70
2018-11-10T07:12:50.472Z,90.34
2018-11-10T07:15:23.932Z,90.38
2018-11-10T07:17:51.470Z,90.76
2018-11-10T07:20:19.263Z,90.25
2018-11-10T07:22:46.460Z,90.07
2018-11-10T07:25:13.730Z,90.11
2018-11-10T07:27:40.958Z,89.76
2018-11-10T07:30:10.045Z,89.87
2018-11-10T07:32:37.414Z,89.23
2018-11-10T07:35:05.191Z,88.22
2018-11-10T07:37:32.530Z,89.25
2018-11-10T07:39:59.756Z,89.25
2018-11-10T07:42:26.966Z,89.04
2018-11-10T07:44:54.195Z,88.18
2018-11-10T07:47:21.510Z,88.10
2018-11-10T07:49:48.776Z,88.17
2018-11-10T07:52:15.992Z,87.50
2018-11-10T07:54:43.251Z,85.93
2018-11-10T07:57:10.500Z,85.90
2018-11-10T07:59:37.765Z,84.95
2018-11-10T08:02:05.113Z,85.46
2018-11-10T08:04:32.340Z,85.11
2018-11-10T08:06:59.582Z,84.74
2018-11-10T08:09:26.759Z,84.66
2018-11-10T08:11:54.063Z,84.79
2018-11-10T08:14:21.358Z,84.80
2018-11-10T08:16:48.614Z,84.40
2018-11-10T08:19:15.796Z,83.94
2018-11-10T08:21:43.036Z,84.64
2018-11-10T08:24:10.223Z,84.25
2018-11-10T08:26:37.464Z,84.43
2018-11-10T08:29:05.104Z,83.46
2018-11-10T08:31:32.404Z,83.33
2018-11-10T08:33:59.726Z,83.53
2018-11-10T08:36:26.996Z,84.08
2018-11-10T08:38:54.258Z,83.49
2018-11-10T08:41:21.467Z,83.49
2018-11-10T08:43:48.773Z,83.34
2018-11-10T08:46:16.010Z,83.35
2018-11-10T08:48:43.341Z,83.06
2018-11-10T08:51:10.652Z,81.72
2018-11-10T08:53:37.890Z,81.66
2018-11-10T08:56:05.722Z,81.09
2018-11-10T08:58:32.973Z,81.23
2018-11-10T09:01:00.251Z,80.67
2018-11-10T09:03:28.100Z,80.26
2018-11-10T09:05:55.343Z,80.66
2018-11-10T09:08:22.591Z,80.52
2018-11-10T09:10:49.867Z,81.09
2018-11-10T09:13:17.115Z,80.29
2018-11-10T09:15:44.357Z,79.73
2018-11-10T09:18:11.602Z,79.84
2018-11-10T09:20:38.899Z,80.29
2018-11-10T09:23:06.114Z,80.71
2018-11-10T09:25:33.381Z,79.16
2018-11-10T09:28:00.635Z,79.82
2018-11-10T09:30:27.857Z,80.23
2018-11-10T09:32:55.083Z,80.06
2018-11-10T09:35:22.299Z,79.86
2018-11-10T09:37:49.544Z,80.18
2018-11-10T09:40:17.108Z,79.37
2018-11-10T09:42:44.554Z,77.82
2018-11-10T09:45:13.138Z,77.76
2018-11-10T09:47:40.703Z,79.13
2018-11-10T09:50:13.329Z,78.22
2018-11-10T09:52:41.008Z,78.07
2018-11-10T09:55:08.976Z,76.74
2018-11-10T09:57:36.910Z,76.53
2018-11-10T10:00:07.625Z,76.53
2018-11-10T10:02:35.183Z,77.45
2018-11-10T10:05:02.116Z,78.15
2018-11-10T10:07:29.333Z,78.59
2018-11-10T10:09:56.577Z,79.87
2018-11-10T10:12:23.842Z,79.49
2018-11-10T10:14:51.020Z,79.47
2018-11-10T10:17:18.255Z,79.67
2018-11-10T10:19:45.481Z,79.55
2018-11-10T10:22:12.792Z,79.91
2018-11-10T10:24:40.029Z,79.28
2018-11-10T10:27:07.291Z,78.73
2018-11-10T10:29:34.779Z,78.61
2018-11-10T10:32:02.051Z,79.51
2018-11-10T10:34:29.392Z,78.70
2018-11-10T10:36:56.619Z,78.50
2018-11-10T10:39:23.893Z,77.48
2018-11-10T10:41:51.147Z,78.72
2018-11-10T10:44:18.447Z,77.68
2018-11-10T10:46:45.637Z,77.29
2018-11-10T10:49:15.599Z,77.13
2018-11-10T10:51:42.884Z,76.89
2018-11-10T10:54:10.163Z,78.00
2018-11-10T10:56:37.653Z,76.07
2018-11-10T10:59:05.019Z,76.78
2018-11-10T11:01:38.024Z,76.59
2018-11-10T11:04:11.177Z,76.22
2018-11-10T11:06:38.453Z,76.69
2018-11-10T11:09:06.429Z,76.71
2018-11-10T11:11:34.028Z,76.36
2018-11-10T11:14:01.278Z,76.52
2018-11-10T11:16:28.524Z,75.20
2018-11-10T11:18:55.772Z,74.76
2018-11-10T11:21:23.001Z,74.87
2018-11-10T11:23:50.333Z,75.40
2018-11-10T11:26:17.608Z,75.69
2018-11-10T11:28:44.814Z,74.46
2018-11-10T11:31:12.165Z,74.76
2018-11-10T11:33:39.557Z,75.36
2018-11-10T11:36:06.821Z,74.69
2018-11-10T11:38:34.024Z,73.93
2018-11-10T11:41:01.247Z,74.27
2018-11-10T11:43:28.966Z,74.51
2018-11-10T11:45:56.217Z,73.55
2018-11-10T11:48:24.052Z,71.59
2018-11-10T11:50:51.579Z,72.71
2018-11-10T11:53:18.866Z,71.47
2018-11-10T11:55:46.123Z,71.57
2018-11-10T11:58:13.561Z,71.65
2018-11-10T12:00:40.669Z,69.73
2018-11-10T12:03:07.973Z,70.08
2018-11-10T12:05:35.200Z,69.58
2018-11-10T12:08:02.464Z,68.82
2018-11-10T12:10:29.928Z,68.68
2018-11-10T12:12:57.416Z,68.46
2018-11-10T12:15:24.901Z,68.43
2018-11-10T12:17:52.329Z,67.18
2018-11-10T12:20:20.084Z,67.18
2018-11-10T12:22:47.363Z,65.50
2018-11-10T12:25:19.381Z,66.48
2018-11-10T12:27:47.298Z,66.52
2018-11-10T12:30:14.605Z,66.09
2018-11-10T12:32:41.886Z,65.84
2018-11-10T12:35:10.771Z,65.35
2018-11-10T12:37:38.015Z,64.86
2018-11-10T12:40:07.317Z,63.27
2018-11-10T12:42:34.961Z,62.95
2018-11-10T12:45:02.279Z,63.26
2018-11-10T12:47:29.586Z,63.46
2018-11-10T12:49:56.824Z,64.29
2018-11-10T12:52:24.075Z,65.14
2018-11-10T12:54:51.427Z,65.83
2018-11-10T12:57:18.634Z,66.61
2018-11-10T12:59:45.910Z,67.66
2018-11-10T13:02:13.197Z,64.93
2018-11-10T13:04:40.461Z,64.89
2018-11-10T13:07:07.774Z,65.71
2018-11-10T13:09:34.993Z,65.20
2018-11-10T13:12:02.381Z,65.49
2018-11-10T13:14:29.584Z,64.28
2018-11-10T13:16:56.868Z,64.39
2018-11-10T13:19:24.129Z,64.98
2018-11-10T13:21:51.437Z,64.43
2018-11-10T13:24:18.783Z,64.85
2018-11-10T13:26:45.956Z,65.30
2018-11-10T13:29:13.255Z,66.51
2018-11-10T13:31:40.534Z,66.51
2018-11-10T13:34:07.709Z,66.95
2018-11-10T13:36:35.042Z,67.58
2018-11-10T13:39:03.549Z,69.47
2018-11-10T13:41:30.736Z,68.48
2018-11-10T13:43:58.137Z,67.66
2018-11-10T13:46:25.311Z,68.72
2018-11-10T13:48:52.561Z,68.64
2018-11-10T13:51:19.900Z,69.89
2018-11-10T13:53:47.237Z,69.25
2018-11-10T13:56:16.705Z,69.59
2018-11-10T13:58:43.995Z,69.61
2018-11-10T14:01:11.217Z,70.14
2018-11-10T14:03:38.494Z,69.92
2018-11-10T14:06:05.776Z,69.99
2018-11-10T14:08:32.995Z,70.21
2018-11-10T14:11:00.240Z,70.01
2018-11-10T14:13:27.469Z,69.41
2018-11-10T14:15:54.741Z,70.61
2018-11-10T14:18:22.037Z,70.80
2018-11-10T14:20:49.288Z,70.64
2018-11-10T14:23:16.517Z,71.16
2018-11-10T14:25:43.895Z,71.57
2018-11-10T14:28:11.152Z,71.30
2018-11-10T14:30:38.395Z,71.52
2018-11-10T14:33:05.988Z,71.43
2018-11-10T14:35:33.204Z,72.82
2018-11-10T14:38:00.446Z,72.14
2018-11-10T14:40:27.681Z,72.79
2018-11-10T14:42:54.898Z,72.64
2018-11-10T14:45:22.171Z,73.06
2018-11-10T14:47:49.364Z,73.36
2018-11-10T14:50:17.414Z,72.99
2018-11-10T14:52:44.753Z,73.14
2018-11-10T14:55:12.443Z,73.37
2018-11-10T14:57:39.877Z,73.26
2018-11-10T15:00:09.242Z,73.35
2018-11-10T15:02:36.476Z,74.07
2018-11-10T15:05:04.149Z,74.13
2018-11-10T15:07:31.395Z,74.81
2018-11-10T15:09:58.660Z,73.76
2018-11-10T15:12:25.888Z,73.29
2018-11-10T15:14:53.098Z,74.36
2018-11-10T15:17:20.346Z,75.06
2018-11-10T15:19:47.604Z,74.14
2018-11-10T15:22:14.849Z,73.75
2018-11-10T15:24:42.096Z,74.64
2018-11-10T15:27:09.350Z,75.24
2018-11-10T15:29:36.659Z,74.25
2018-11-10T15:32:04.120Z,75.01
2018-11-10T15:34:31.330Z,74.82
2018-11-10T15:36:58.616Z,74.31
2018-11-10T15:39:25.979Z,73.85
2018-11-10T15:41:53.274Z,74.49
2018-11-10T15:44:20.530Z,74.60
2018-11-10T15:46:47.752Z,74.74
2018-11-10T15:49:17.031Z,75.26
2018-11-10T15:51:44.305Z,75.66
2018-11-10T15:54:11.604Z,75.71
2018-11-10T15:56:38.905Z,76.49
2018-11-10T15:59:06.229Z,76.62
2018-11-10T16:01:33.441Z,76.71
2018-11-10T16:04:00.746Z,75.30
2018-11-10T16:06:28.005Z,75.94
2018-11-10T16:08:55.248Z,76.91
2018-11-10T16:11:22.446Z,77.39
2018-11-10T16:13:49.731Z,77.92
2018-11-10T16:16:17.025Z,78.05
2018-11-10T16:18:44.273Z,77.34
2018-11-10T16:21:11.496Z,78.50
2018-11-10T16:23:38.770Z,78.15
2018-11-10T16:26:06.009Z,78.31
2018-11-10T16:28:33.220Z,78.34
2018-11-10T16:31:00.438Z,78.83
2018-11-10T16:33:27.661Z,79.65
2018-11-10T16:35:54.956Z,79.84
2018-11-10T16:38:22.471Z,79.48
2018-11-10T16:40:49.655Z,79.68
2018-11-10T16:43:16.878Z,79.33
2018-11-10T16:45:44.190Z,78.75
2018-11-10T16:48:11.451Z,80.03
2018-11-10T16:50:38.663Z,79.52
2018-11-10T16:53:05.929Z,80.24
2018-11-10T16:55:33.216Z,80.90
2018-11-10T16:58:00.486Z,80.89
2018-11-10T17:00:27.719Z,81.51
2018-11-10T17:02:54.992Z,81.54
2018-11-10T17:05:24.167Z,81.09
2018-11-10T17:07:51.444Z,81.52
2018-11-10T17:10:18.729Z,81.17
2018-11-10T17:12:46.010Z,82.02
2018-11-10T17:15:13.318Z,81.54
2018-11-10T17:17:40.563Z,81.40
2018-11-10T17:20:09.680Z,81.58
2018-11-10T17:22:37.091Z,80.55
2018-11-10T17:25:05.102Z,81.46
2018-11-10T17:27:32.343Z,81.31
2018-11-10T17:29:59.661Z,81.62
2018-11-10T17:32:26.869Z,81.65
2018-11-10T17:34:54.216Z,80.66
2018-11-10T17:37:21.500Z,80.67
2018-11-10T17:39:49.090Z,79.94
2018-11-10T17:42:16.263Z,79.87
2018-11-10T17:44:43.836Z,80.46
2018-11-10T17:47:11.265Z,81.80
2018-11-10T17:49:38.520Z,81.54
2018-11-10T17:52:07.751Z,81.09
2018-11-10T17:54:35.025Z,80.45
2018-11-10T17:57:02.200Z,80.42
2018-11-10T17:59:29.536Z,79.91
2018-11-10T18:01:57.131Z,81.00
2018-11-10T18:04:24.219Z,80.67
2018-11-10T18:06:51.490Z,80.57
2018-11-10T18:09:18.721Z,80.35
2018-11-10T18:11:45.977Z,80.50
2018-11-10T18:14:13.276Z,80.99
2018-11-10T18:16:40.529Z,79.89
2018-11-10T18:19:07.912Z,80.00
2018-11-10T18:21:35.133Z,80.28
2018-11-10T18:24:02.481Z,79.62
2018-11-10T18:26:29.810Z,79.79
2018-11-10T18:28:57.045Z,79.42
2018-11-10T18:31:24.319Z,80.22
2018-11-10T18:33:51.535Z,80.39
2018-11-10T18:36:18.882Z,80.02
2018-11-10T18:38:46.286Z,80.15
2018-11-10T18:41:13.544Z,80.65
2018-11-10T18:43:41.465Z,80.83
2018-11-10T18:46:10.312Z,81.15
2018-11-10T18:48:37.874Z,82.06
2018-11-10T18:51:07.088Z,82.09
2018-11-10T18:53:36.117Z,82.02
2018-11-10T18:56:03.410Z,82.08
2018-11-10T18:58:32.792Z,82.12
2018-11-10T19:01:01.733Z,82.50
2018-11-10T19:03:28.981Z,83.85
2018-11-10T19:05:58.355Z,82.18
2018-11-10T19:08:25.601Z,82.19
2018-11-10T19:10:53.031Z,82.28
2018-11-10T19:13:20.262Z,83.43
2018-11-10T19:15:47.466Z,83.17
2018-11-10T19:18:14.764Z,83.27
2018-11-10T19:20:42.084Z,82.55
2018-11-10T19:23:09.445Z,82.37
2018-11-10T19:25:37.065Z,80.84
2018-11-10T19:28:04.720Z,81.29
2018-11-10T19:30:31.968Z,81.78
2018-11-10T19:32:59.214Z,82.05
2018-11-10T19:35:26.602Z,82.93
2018-11-10T19:37:53.840Z,81.75
2018-11-10T19:40:21.106Z,82.81
2018-11-10T19:42:48.353Z,83.26
2018-11-10T19:45:15.621Z,83.41
2018-11-10T19:47:43.886Z,83.32
2018-11-10T19:50:11.802Z,82.42
2018-11-10T19:52:39.042Z,81.83
2018-11-10T19:55:08.306Z,82.47
2018-11-10T19:57:35.775Z,82.86
2018-11-10T20:00:03.634Z,82.82
2018-11-10T20:02:30.884Z,82.32
2018-11-10T20:04:58.177Z,82.54
2018-11-10T20:07:25.459Z,82.62
2018-11-10T20:09:52.726Z,83.98
2018-11-10T20:14:52.206Z,83.12
2018-11-10T20:17:19.431Z,83.75
2018-11-10T20:19:46.820Z,84.27
2018-11-10T20:22:13.956Z,83.52
2018-11-10T20:24:41.183Z,83.52
2018-11-10T20:27:08.437Z,84.08
2018-11-10T20:29:35.748Z,83.82
2018-11-10T20:32:02.981Z,84.55
2018-11-10T20:34:30.171Z,84.07
2018-11-10T20:36:57.415Z,83.87
2018-11-10T20:39:24.680Z,83.87
2018-11-10T20:41:51.967Z,83.88
2018-11-10T20:44:19.240Z,84.39
2018-11-10T20:46:46.482Z,84.57
2018-11-10T20:49:16.060Z,84.81
2018-11-10T20:51:43.369Z,84.34
2018-11-10T20:54:10.652Z,84.52
2018-11-10T20:56:37.969Z,84.72
2018-11-10T20:59:05.260Z,85.22
2018-11-10T21:01:32.538Z,85.65
2018-11-10T21:03:59.817Z,85.62
2018-11-10T21:06:27.157Z,85.72
2018-11-10T21:08:54.558Z,86.48
2018-11-10T21:11:21.806Z,86.03
2018-11-10T21:13:49.812Z,86.87
2018-11-10T21:16:17.248Z,85.89
2018-11-10T21:18:44.618Z,87.13
2018-11-10T21:21:12.011Z,86.51
2018-11-10T21:23:39.183Z,87.00
2018-11-10T21:26:06.386Z,87.14
2018-11-10T21:28:33.736Z,86.63
2018-11-10T21:31:01.012Z,87.11
2018-11-10T21:33:28.377Z,88.03
2018-11-10T21:35:55.844Z,87.83
2018-11-10T21:38:23.261Z,88.14
2018-11-10T21:40:50.601Z,88.39
2018-11-10T21:43:17.923Z,88.45
2018-11-10T21:45:45.172Z,88.50
2018-11-10T21:48:12.388Z,88.25
2018-11-10T21:50:39.713Z,87.31
2018-11-10T21:53:07.085Z,86.71
2018-11-10T21:55:34.346Z,86.96
2018-11-10T21:58:01.667Z,86.07
2018-11-10T22:00:28.913Z,86.38
2018-11-10T22:02:56.111Z,87.02
2018-11-10T22:05:23.380Z,87.37
2018-11-10T22:07:50.678Z,87.37
2018-11-10T22:10:18.674Z,87.25
2018-11-10T22:12:46.154Z,87.06
2018-11-10T22:15:16.411Z,87.44
2018-11-10T22:17:44.283Z,87.70
2018-11-10T22:20:13.643Z,87.09
2018-11-10T22:22:41.018Z,88.45
2018-11-10T22:25:09.450Z,88.77
2018-11-10T22:27:37.614Z,88.64
2018-11-10T22:30:05.653Z,88.92
2018-11-10T22:32:32.996Z,89.33
2018-11-10T22:35:00.369Z,88.87
2018-11-10T22:37:27.713Z,89.20
2018-11-10T22:39:55.034Z,88.98
2018-11-10T22:42:22.444Z,87.73
2018-11-10T22:44:49.725Z,87.09
2018-11-10T22:47:17.077Z,85.97
2018-11-10T22:49:44.391Z,85.29
2018-11-10T22:52:11.713Z,85.04
2018-11-10T22:54:38.954Z,84.34
2018-11-10T22:57:06.255Z,84.95
2018-11-10T22:59:33.622Z,84.85
2018-11-10T23:02:01.048Z,84.79
2018-11-10T23:04:28.474Z,85.51
2018-11-10T23:06:56.708Z,85.27
2018-11-10T23:09:24.097Z,84.33
2018-11-10T23:11:51.398Z,84.42
2018-11-10T23:14:18.953Z,84.78
2018-11-10T23:16:46.451Z,84.55
2018-11-10T23:19:13.876Z,84.24
2018-11-10T23:21:41.292Z,85.09
2018-11-10T23:24:08.639Z,85.28
2018-11-10T23:26:36.031Z,85.80
2018-11-10T23:29:03.333Z,85.34
2018-11-10T23:31:30.641Z,85.23
2018-11-10T23:33:57.923Z,85.95
2018-11-10T23:36:25.220Z,85.88
2018-11-10T23:38:52.460Z,86.65
2018-11-10T23:41:19.714Z,86.97
2018-11-10T23:43:46.959Z,88.68
2018-11-10T23:46:14.205Z,87.85
2018-11-10T23:48:41.483Z,89.19
2018-11-10T23:51:08.771Z,89.14
2018-11-10T23:53:36.075Z,90.50
2018-11-10T23:56:03.420Z,90.59
2018-11-10T23:58:30.667Z,91.03
